Time;durP1;ratioP1;P1;durP2;ratioP2;P2;SDS_P1;SDS_P2;PMS_P1;PMS_P2;Temp;Humidity;BMP_temperature;BMP_pressure;BME280_temperature;BME280_humidity;BME280_pressure;Samples;Min_cycle;Max_cycle;Signal;HPM_P1;HPM_P2
2022/04/06 00:00:05;;;;;;;;;;;;;;;;;;1287120;23;801;-32
2022/04/06 00:00:36;;;;;;;;;;;;;;;;;;1286859;23;852;-33
2022/04/06 00:01:06;;;;;;;;;;;;;;;;;;1288076;23;825;-34
2022/04/06 00:01:36;;;;;;;;;;;;;;;;;;1286248;23;797;-30
2022/04/06 00:02:07;;;;;;;;;;;;;;;;;;1287023;23;848;-33
2022/04/06 00:02:40;;;;;;;;;;;;;;;;;;1286460;23;781;-33
2022/04/06 00:03:11;;;;;;;;;;;;;;;;;;1286722;23;781;-32
2022/04/06 00:03:43;;;;;;;;;;;;;;;;;;1286230;23;813;-32
2022/04/06 00:04:14;;;;;;;;;;;;;;;;;;1286808;23;907;-32
2022/04/06 00:04:44;;;;;;;;;;;;;;;;;;1285794;23;802;-29
2022/04/06 00:05:14;;;;;;;;;;;;;;;;;;1286767;23;1052;-32
2022/04/06 00:05:45;;;;;;;;;;;;;;;;;;1287693;23;1043;-31
2022/04/06 00:06:15;;;;;;;;;;;;;;;;;;1286380;23;864;-36
2022/04/06 00:06:46;;;;;;;;;;;;;;;;;;1287335;23;892;-33
2022/04/06 00:07:16;;;;;;;;;;;;;;;;;;1286665;23;1247;-32
2022/04/06 00:07:46;;;;;;;;;;;;;;;;;;1286050;23;861;-31
2022/04/06 00:08:17;;;;;;;;;;;;;;;;;;1286170;23;1023;-35
2022/04/06 00:08:47;;;;;;;;;;;;;;;;;;1286667;23;844;-33
2022/04/06 00:09:18;;;;;;;;;;;;;;;;;;1286267;23;1184;-36
2022/04/06 00:09:48;;;;;;;;;;;;;;;;;;1286720;23;912;-36
2022/04/06 00:10:18;;;;;;;;;;;;;;;;;;1287615;23;1948;-31
2022/04/06 00:10:49;;;;;;;;;;;;;;;;;;1285005;23;897;-34
2022/04/06 00:11:19;;;;;;;;;;;;;;;;;;1285562;23;885;-30
2022/04/06 00:11:49;;;;;;;;;;;;;;;;;;1286694;23;829;-34
2022/04/06 00:12:20;;;;;;;;;;;;;;;;;;1285587;23;952;-31
2022/04/06 00:12:50;;;;;;;;;;;;;;;;;;1287073;23;802;-31
2022/04/06 00:13:20;;;;;;;;;;;;;;;;;;1285867;23;1079;-31
2022/04/06 00:13:51;;;;;;;;;;;;;;;;;;1287036;23;817;-34
2022/04/06 00:14:21;;;;;;;;;;;;;;;;;;1287649;23;872;-31
2022/04/06 00:14:51;;;;;;;;;;;;;;;;;;1279724;23;1088;-30
2022/04/06 00:15:22;;;;;;;;;;;;;;;;;;1279655;23;1000;-33
2022/04/06 00:15:52;;;;;;;;;;;;;;;;;;1280260;23;897;-34
2022/04/06 00:16:23;;;;;;;;;;;;;;;;;;1279193;23;980;-31
2022/04/06 00:16:54;;;;;;;;;;;;;;;;;;1285978;23;774;-30
2022/04/06 00:17:24;;;;;;;;;;;;;;;;;;1286136;23;892;-34
2022/04/06 00:17:54;;;;;;;;;;;;;;;;;;1286216;23;765;-32
2022/04/06 00:18:25;;;;;;;;;;;;;;;;;;1287290;23;1018;-36
2022/04/06 00:18:55;;;;;;;;;;;;;;;;;;1287658;23;889;-30
2022/04/06 00:19:26;;;;;;;;;;;;;;;;;;1286817;23;896;-34
2022/04/06 00:19:56;;;;;;;;;;;;;;;;;;1285865;23;921;-29
2022/04/06 00:20:27;;;;;;;;;;;;;;;;;;1285726;23;825;-33
2022/04/06 00:20:57;;;;;;;;;;;;;;;;;;1286832;23;922;-30
2022/04/06 00:21:28;;;;;;;;;;;;;;;;;;1286471;23;817;-32
2022/04/06 00:21:58;;;;;;;;;;;;;;;;;;1286530;23;840;-33
2022/04/06 00:22:28;;;;;;;;;;;;;;;;;;1286653;23;885;-31
2022/04/06 00:22:58;;;;;;;;;;;;;;;;;;1286261;23;770;-32
2022/04/06 00:23:29;;;;;;;;;;;;;;;;;;1286644;23;806;-34
2022/04/06 00:23:59;;;;;;;;;;;;;;;;;;1286694;23;924;-31
2022/04/06 00:24:30;;;;;;;;;;;;;;;;;;1285942;23;984;-33
2022/04/06 00:25:00;;;;;;;;;;;;;;;;;;1286646;23;821;-31
2022/04/06 00:25:32;;;;;;;;;;;;;;;;;;1286414;23;1709;-32
2022/04/06 00:26:03;;;;;;;;;;;;;;;;;;1286475;23;809;-33
2022/04/06 00:26:35;;;;;;;;;;;;;;;;;;1287553;23;908;-33
2022/04/06 00:27:05;;;;;;;;;;;;;;;;;;1287059;23;777;-30
2022/04/06 00:27:36;;;;;;;;;;;;;;;;;;1279583;23;877;-31
2022/04/06 00:28:08;;;;;;;;;;;;;;;;;;1280293;23;1247;-30
2022/04/06 00:28:38;;;;;;;;;;;;;;;;;;1279942;23;968;-33
2022/04/06 00:29:08;;;;;;;;;;;;;;;;;;1281634;23;833;-34
2022/04/06 00:29:39;;;;;;;;;;;;;;;;;;1285552;23;880;-30
2022/04/06 00:30:09;;;;;;;;;;;;;;;;;;1286889;23;1905;-32
2022/04/06 00:30:39;;;;;;;;;;;;;;;;;;1286317;23;885;-34
2022/04/06 00:31:12;;;;;;;;;;;;;;;;;;1285814;23;805;-31
2022/04/06 00:31:42;;;;;;;;;;;;;;;;;;1286534;23;926;-31
2022/04/06 00:32:13;;;;;;;;;;;;;;;;;;1286034;23;921;-32
2022/04/06 00:32:43;;;;;;;;;;;;;;;;;;1287002;23;794;-30
2022/04/06 00:33:13;;;;;;;;;;;;;;;;;;1287251;23;901;-31
2022/04/06 00:33:44;;;;;;;;;;;;;;;;;;1287167;23;912;-30
2022/04/06 00:34:14;;;;;;;;;;;;;;;;;;1286457;23;798;-33
2022/04/06 00:35:33;;;;;;;;;;;;;;;;;;1286987;23;908;-33
2022/04/06 00:36:03;;;;;;;;;;;;;;;;;;1286079;23;967;-31
2022/04/06 00:36:34;;;;;;;;;;;;;;;;;;1286743;23;938;-31
2022/04/06 00:37:04;;;;;;;;;;;;;;;;;;1286303;23;897;-32
2022/04/06 00:37:34;;;;;;;;;;;;;;;;;;1286495;23;1063;-31
2022/04/06 00:38:05;;;;;;;;;;;;;;;;;;1287443;23;865;-31
2022/04/06 00:38:36;;;;;;;;;;;;;;;;;;1286624;23;908;-32
2022/04/06 00:39:06;;;;;;;;;;;;;;;;;;1286151;23;802;-33
2022/04/06 00:39:36;;;;;;;;;;;;;;;;;;1287156;23;821;-30
2022/04/06 00:40:08;;;;;;;;;;;;;;;;;;1287311;23;814;-31
2022/04/06 00:40:38;;;;;;;;;;;;;;;;;;1287203;23;932;-29
2022/04/06 00:41:09;;;;;;;;;;;;;;;;;;1286845;23;889;-30
2022/04/06 00:41:39;;;;;;;;;;;;;;;;;;1286988;23;952;-34
2022/04/06 00:42:09;;;;;;;;;;;;;;;;;;1287104;23;841;-35
2022/04/06 00:42:40;;;;;;;;;;;;;;;;;;1286449;23;782;-33
2022/04/06 00:43:12;;;;;;;;;;;;;;;;;;1287169;23;936;-30
2022/04/06 00:43:42;;;;;;;;;;;;;;;;;;1287108;23;987;-32
2022/04/06 00:44:13;;;;;;;;;;;;;;;;;;1287277;23;789;-31
2022/04/06 00:44:44;;;;;;;;;;;;;;;;;;1287630;23;895;-29
2022/04/06 00:45:15;;;;;;;;;;;;;;;;;;1286106;23;923;-30
2022/04/06 00:45:45;;;;;;;;;;;;;;;;;;1286664;23;972;-30
2022/04/06 00:46:16;;;;;;;;;;;;;;;;;;1287311;23;852;-31
2022/04/06 00:46:46;;;;;;;;;;;;;;;;;;1286408;23;774;-28
2022/04/06 00:47:16;;;;;;;;;;;;;;;;;;1287496;23;809;-31
2022/04/06 00:47:47;;;;;;;;;;;;;;;;;;1287342;23;821;-32
2022/04/06 00:48:17;;;;;;;;;;;;;;;;;;1287191;23;840;-27
2022/04/06 00:48:48;;;;;;;;;;;;;;;;;;1287330;23;816;-30
2022/04/06 00:49:18;;;;;;;;;;;;;;;;;;1286790;23;1611;-31
2022/04/06 00:49:48;;;;;;;;;;;;;;;;;;1287772;23;893;-31
2022/04/06 00:50:20;;;;;;;;;;;;;;;;;;1286369;23;1899;-30
2022/04/06 00:50:50;;;;;;;;;;;;;;;;;;1287261;23;904;-34
2022/04/06 00:51:21;;;;;;;;;;;;;;;;;;1286656;23;920;-33
2022/04/06 00:51:51;;;;;;;;;;;;;;;;;;1287136;23;877;-34
2022/04/06 00:52:21;;;;;;;;;;;;;;;;;;1286588;23;849;-32
2022/04/06 00:52:57;;;;;;;;;;;;;;;;;;1287057;23;1012;-29
2022/04/06 00:53:27;;;;;;;;;;;;;;;;;;1287255;23;770;-32
2022/04/06 00:53:58;;;;;;;;;;;;;;;;;;1288951;23;758;-32
2022/04/06 00:54:30;;;;;;;;;;;;;;;;;;1286519;23;786;-29
2022/04/06 00:55:01;;;;;;;;;;;;;;;;;;1288306;23;940;-32
2022/04/06 00:55:33;;;;;;;;;;;;;;;;;;1286818;23;880;-30
2022/04/06 00:56:04;;;;;;;;;;;;;;;;;;1286669;23;925;-32
2022/04/06 00:56:34;;;;;;;;;;;;;;;;;;1287372;23;893;-33
2022/04/06 00:57:05;;;;;;;;;;;;;;;;;;1288587;23;1333;-29
2022/04/06 00:57:35;;;;;;;;;;;;;;;;;;1288261;23;801;-31
2022/04/06 00:58:06;;;;;;;;;;;;;;;;;;1287136;23;864;-30
2022/04/06 00:58:37;;;;;;;;;;;;;;;;;;1285992;23;801;-30
2022/04/06 00:59:07;;;;;;;;;;;;;;;;;;1286555;23;1024;-34
2022/04/06 00:59:38;;;;;;;;;;;;;;;;;;1286491;23;771;-30
2022/04/06 01:00:10;;;;;;;;;;;;;;;;;;1287252;23;836;-32
2022/04/06 01:00:40;;;;;;;;;;;;;;;;;;1287434;23;857;-30
2022/04/06 01:01:10;;;;;;;;;;;;;;;;;;1286980;23;833;-31
2022/04/06 01:01:40;;;;;;;;;;;;;;;;;;1286882;23;881;-30
2022/04/06 01:02:11;;;;;;;;;;;;;;;;;;1287308;23;905;-33
2022/04/06 01:02:41;;;;;;;;;;;;;;;;;;1286706;23;904;-31
2022/04/06 01:03:12;;;;;;;;;;;;;;;;;;1287058;23;829;-30
2022/04/06 01:03:42;;;;;;;;;;;;;;;;;;1287294;23;789;-29
2022/04/06 01:04:13;;;;;;;;;;;;;;;;;;1286835;23;936;-32
2022/04/06 01:04:43;;;;;;;;;;;;;;;;;;1286513;23;860;-31
2022/04/06 01:05:14;;;;;;;;;;;;;;;;;;1288471;23;826;-30
2022/04/06 01:05:44;;;;;;;;;;;;;;;;;;1287514;23;885;-32
2022/04/06 01:06:14;;;;;;;;;;;;;;;;;;1287288;23;826;-31
2022/04/06 01:06:46;;;;;;;;;;;;;;;;;;1287504;23;976;-30
2022/04/06 01:07:18;;;;;;;;;;;;;;;;;;1286529;23;1012;-34
2022/04/06 01:07:49;;;;;;;;;;;;;;;;;;1286814;23;943;-28
2022/04/06 01:08:19;;;;;;;;;;;;;;;;;;1286527;23;979;-31
2022/04/06 01:08:51;;;;;;;;;;;;;;;;;;1287709;23;825;-28
2022/04/06 01:09:22;;;;;;;;;;;;;;;;;;1287353;23;1183;-31
2022/04/06 01:09:52;;;;;;;;;;;;;;;;;;1286973;23;806;-32
2022/04/06 01:10:22;;;;;;;;;;;;;;;;;;1287270;23;1909;-31
2022/04/06 01:10:53;;;;;;;;;;;;;;;;;;1286552;23;868;-32
2022/04/06 01:11:23;;;;;;;;;;;;;;;;;;1287663;23;869;-33
2022/04/06 01:11:53;;;;;;;;;;;;;;;;;;1286927;23;937;-34
2022/04/06 01:12:24;;;;;;;;;;;;;;;;;;1287392;23;1007;-34
2022/04/06 01:12:54;;;;;;;;;;;;;;;;;;1286889;23;888;-32
2022/04/06 01:13:26;;;;;;;;;;;;;;;;;;1286983;23;868;-30
2022/04/06 01:13:57;;;;;;;;;;;;;;;;;;1287341;23;897;-34
2022/04/06 01:14:27;;;;;;;;;;;;;;;;;;1287114;23;841;-31
2022/04/06 01:14:57;;;;;;;;;;;;;;;;;;1286351;23;790;-28
2022/04/06 01:15:28;;;;;;;;;;;;;;;;;;1287298;23;734;-34
2022/04/06 01:15:58;;;;;;;;;;;;;;;;;;1286492;23;876;-32
2022/04/06 01:16:29;;;;;;;;;;;;;;;;;;1287076;23;938;-33
2022/04/06 01:17:00;;;;;;;;;;;;;;;;;;1287100;23;821;-33
2022/04/06 01:17:34;;;;;;;;;;;;;;;;;;1287313;23;810;-32
2022/04/06 01:18:05;;;;;;;;;;;;;;;;;;1286391;23;869;-33
2022/04/06 01:18:36;;;;;;;;;;;;;;;;;;1287921;23;849;-31
2022/04/06 01:19:07;;;;;;;;;;;;;;;;;;1287596;23;928;-33
2022/04/06 01:19:39;;;;;;;;;;;;;;;;;;1287465;23;814;-29
2022/04/06 01:20:10;;;;;;;;;;;;;;;;;;1286355;23;790;-31
2022/04/06 01:20:40;;;;;;;;;;;;;;;;;;1288275;23;908;-30
2022/04/06 01:21:11;;;;;;;;;;;;;;;;;;1286404;23;806;-29
2022/04/06 01:21:42;;;;;;;;;;;;;;;;;;1286758;23;889;-30
2022/04/06 01:22:13;;;;;;;;;;;;;;;;;;1287177;23;829;-29
2022/04/06 01:22:44;;;;;;;;;;;;;;;;;;1287357;23;904;-32
2022/04/06 01:23:14;;;;;;;;;;;;;;;;;;1286860;23;960;-34
2022/04/06 01:23:45;;;;;;;;;;;;;;;;;;1287320;23;893;-34
2022/04/06 01:24:15;;;;;;;;;;;;;;;;;;1286818;23;963;-28
2022/04/06 01:24:46;;;;;;;;;;;;;;;;;;1288507;23;916;-31
2022/04/06 01:25:17;;;;;;;;;;;;;;;;;;1287829;23;865;-31
2022/04/06 01:25:47;;;;;;;;;;;;;;;;;;1286574;23;986;-34
2022/04/06 01:26:18;;;;;;;;;;;;;;;;;;1286165;23;877;-28
2022/04/06 01:26:49;;;;;;;;;;;;;;;;;;1287635;23;877;-31
2022/04/06 01:27:19;;;;;;;;;;;;;;;;;;1286512;23;833;-29
2022/04/06 01:27:50;;;;;;;;;;;;;;;;;;1287313;23;852;-30
2022/04/06 01:28:20;;;;;;;;;;;;;;;;;;1288517;23;929;-29
2022/04/06 01:28:51;;;;;;;;;;;;;;;;;;1288751;23;913;-32
2022/04/06 01:29:21;;;;;;;;;;;;;;;;;;1287919;23;916;-27
2022/04/06 01:29:52;;;;;;;;;;;;;;;;;;1287241;23;1070;-29
2022/04/06 01:30:22;;;;;;;;;;;;;;;;;;1287488;23;1907;-31
2022/04/06 01:30:52;;;;;;;;;;;;;;;;;;1287431;23;965;-30
2022/04/06 01:31:23;;;;;;;;;;;;;;;;;;1287307;23;849;-33
2022/04/06 01:31:53;;;;;;;;;;;;;;;;;;1287122;23;822;-29
2022/04/06 01:32:25;;;;;;;;;;;;;;;;;;1287257;23;957;-31
2022/04/06 01:32:56;;;;;;;;;;;;;;;;;;1287177;23;1161;-30
2022/04/06 01:33:27;;;;;;;;;;;;;;;;;;1286884;23;805;-33
2022/04/06 01:33:58;;;;;;;;;;;;;;;;;;1287284;23;834;-32
2022/04/06 01:34:29;;;;;;;;;;;;;;;;;;1286087;23;1582;-29
2022/04/06 01:34:59;;;;;;;;;;;;;;;;;;1287210;23;845;-32
2022/04/06 01:35:30;;;;;;;;;;;;;;;;;;1286489;23;810;-31
2022/04/06 01:36:00;;;;;;;;;;;;;;;;;;1288109;23;889;-28
2022/04/06 01:36:31;;;;;;;;;;;;;;;;;;1286932;23;912;-32
2022/04/06 01:37:02;;;;;;;;;;;;;;;;;;1287220;23;895;-34
2022/04/06 01:37:34;;;;;;;;;;;;;;;;;;1286391;23;782;-28
2022/04/06 01:38:05;;;;;;;;;;;;;;;;;;1286806;23;837;-30
2022/04/06 01:38:35;;;;;;;;;;;;;;;;;;1286199;23;789;-32
2022/04/06 01:39:06;;;;;;;;;;;;;;;;;;1287160;23;944;-30
2022/04/06 01:39:37;;;;;;;;;;;;;;;;;;1286333;23;904;-33
2022/04/06 01:40:07;;;;;;;;;;;;;;;;;;1287069;23;882;-34
2022/04/06 01:40:37;;;;;;;;;;;;;;;;;;1286604;23;893;-31
2022/04/06 01:41:08;;;;;;;;;;;;;;;;;;1286517;23;893;-31
2022/04/06 01:41:38;;;;;;;;;;;;;;;;;;1287203;23;722;-32
2022/04/06 01:42:09;;;;;;;;;;;;;;;;;;1286223;23;936;-33
2022/04/06 01:42:39;;;;;;;;;;;;;;;;;;1286446;23;829;-31
2022/04/06 01:43:10;;;;;;;;;;;;;;;;;;1287902;23;976;-34
2022/04/06 01:43:40;;;;;;;;;;;;;;;;;;1288846;23;975;-32
2022/04/06 01:44:10;;;;;;;;;;;;;;;;;;1287920;23;802;-34
2022/04/06 01:44:41;;;;;;;;;;;;;;;;;;1287401;23;940;-29
2022/04/06 01:45:11;;;;;;;;;;;;;;;;;;1286559;23;988;-27
2022/04/06 01:45:41;;;;;;;;;;;;;;;;;;1286967;23;896;-31
2022/04/06 01:46:12;;;;;;;;;;;;;;;;;;1287321;23;833;-31
2022/04/06 01:46:42;;;;;;;;;;;;;;;;;;1286365;23;818;-33
2022/04/06 01:47:15;;;;;;;;;;;;;;;;;;1287613;23;766;-31
2022/04/06 01:47:45;;;;;;;;;;;;;;;;;;1287143;23;900;-31
2022/04/06 01:48:16;;;;;;;;;;;;;;;;;;1286396;23;792;-34
2022/04/06 01:52:17;;;;;;;;;;;;;;;;;;1285650;23;956;-29
2022/04/06 01:52:48;;;;;;;;;;;;;;;;;;1286368;23;794;-31
2022/04/06 01:53:18;;;;;;;;;;;;;;;;;;1288151;23;936;-30
2022/04/06 01:53:50;;;;;;;;;;;;;;;;;;1286880;23;778;-28
2022/04/06 01:54:20;;;;;;;;;;;;;;;;;;1286354;23;837;-29
2022/04/06 01:54:56;;;;;;;;;;;;;;;;;;1287045;23;773;-33
2022/04/06 01:55:26;;;;;;;;;;;;;;;;;;1286908;23;797;-33
2022/04/06 01:55:56;;;;;;;;;;;;;;;;;;1286234;23;857;-29
2022/04/06 01:56:27;;;;;;;;;;;;;;;;;;1286719;23;833;-28
2022/04/06 01:56:57;;;;;;;;;;;;;;;;;;1287595;23;881;-32
2022/04/06 01:57:28;;;;;;;;;;;;;;;;;;1287052;23;1286;-33
2022/04/06 01:57:59;;;;;;;;;;;;;;;;;;1286695;23;809;-30
2022/04/06 01:58:30;;;;;;;;;;;;;;;;;;1286592;23;805;-31
2022/04/06 01:59:00;;;;;;;;;;;;;;;;;;1286843;23;830;-29
2022/04/06 01:59:30;;;;;;;;;;;;;;;;;;1286578;23;853;-31
2022/04/06 02:00:01;;;;;;;;;;;;;;;;;;1287260;23;782;-32
2022/04/06 02:00:31;;;;;;;;;;;;;;;;;;1286295;23;821;-31
2022/04/06 02:01:01;;;;;;;;;;;;;;;;;;1287034;23;928;-30
2022/04/06 02:01:34;;;;;;;;;;;;;;;;;;1286311;23;928;-33
2022/04/06 02:02:05;;;;;;;;;;;;;;;;;;1286871;23;786;-32
2022/04/06 02:02:36;;;;;;;;;;;;;;;;;;1287333;23;996;-32
2022/04/06 02:03:06;;;;;;;;;;;;;;;;;;1286738;23;849;-33
2022/04/06 02:03:37;;;;;;;;;;;;;;;;;;1286731;23;762;-33
2022/04/06 02:04:14;;;;;;;;;;;;;;;;;;1287518;23;924;-34
2022/04/06 02:04:44;;;;;;;;;;;;;;;;;;1287380;23;896;-32
2022/04/06 02:05:18;;;;;;;;;;;;;;;;;;1287156;23;853;-34
2022/04/06 02:05:48;;;;;;;;;;;;;;;;;;1287162;23;853;-31
2022/04/06 02:06:19;;;;;;;;;;;;;;;;;;1287054;23;884;-32
2022/04/06 02:06:49;;;;;;;;;;;;;;;;;;1287192;23;972;-29
2022/04/06 02:07:19;;;;;;;;;;;;;;;;;;1287450;23;912;-33
2022/04/06 02:07:50;;;;;;;;;;;;;;;;;;1286514;23;805;-30
2022/04/06 02:08:21;;;;;;;;;;;;;;;;;;1287041;23;813;-30
2022/04/06 02:08:51;;;;;;;;;;;;;;;;;;1287069;23;936;-33
2022/04/06 02:09:21;;;;;;;;;;;;;;;;;;1286156;23;1013;-30
2022/04/06 02:09:52;;;;;;;;;;;;;;;;;;1286087;23;933;-29
2022/04/06 02:10:22;;;;;;;;;;;;;;;;;;1287092;23;1944;-33
2022/04/06 02:10:53;;;;;;;;;;;;;;;;;;1286759;23;1024;-34
2022/04/06 02:11:23;;;;;;;;;;;;;;;;;;1287047;23;876;-28
2022/04/06 02:11:53;;;;;;;;;;;;;;;;;;1287079;23;798;-32
2022/04/06 02:12:24;;;;;;;;;;;;;;;;;;1287452;23;1050;-34
2022/04/06 02:12:57;;;;;;;;;;;;;;;;;;1286721;23;849;-33
2022/04/06 02:13:27;;;;;;;;;;;;;;;;;;1287085;23;920;-32
2022/04/06 02:13:57;;;;;;;;;;;;;;;;;;1287060;23;794;-34
2022/04/06 02:14:28;;;;;;;;;;;;;;;;;;1286535;23;829;-29
2022/04/06 02:14:58;;;;;;;;;;;;;;;;;;1286939;23;876;-35
2022/04/06 02:15:29;;;;;;;;;;;;;;;;;;1286919;23;909;-33
2022/04/06 02:15:59;;;;;;;;;;;;;;;;;;1286278;23;944;-29
2022/04/06 02:16:29;;;;;;;;;;;;;;;;;;1287161;23;849;-29
2022/04/06 02:17:01;;;;;;;;;;;;;;;;;;1287072;23;928;-31
2022/04/06 02:17:31;;;;;;;;;;;;;;;;;;1286871;23;849;-33
2022/04/06 02:18:01;;;;;;;;;;;;;;;;;;1286328;23;975;-28
2022/04/06 02:18:31;;;;;;;;;;;;;;;;;;1286675;23;1388;-30
2022/04/06 02:19:02;;;;;;;;;;;;;;;;;;1287128;23;933;-29
2022/04/06 02:19:33;;;;;;;;;;;;;;;;;;1286868;23;765;-28
2022/04/06 02:20:03;;;;;;;;;;;;;;;;;;1286793;23;912;-32
2022/04/06 02:20:33;;;;;;;;;;;;;;;;;;1286660;23;829;-31
2022/04/06 02:21:04;;;;;;;;;;;;;;;;;;1287013;23;809;-34
2022/04/06 02:21:34;;;;;;;;;;;;;;;;;;1286491;23;817;-33
2022/04/06 02:22:05;;;;;;;;;;;;;;;;;;1287361;23;872;-28
2022/04/06 02:22:36;;;;;;;;;;;;;;;;;;1286172;23;877;-32
2022/04/06 02:23:06;;;;;;;;;;;;;;;;;;1279308;23;920;-31
2022/04/06 02:23:37;;;;;;;;;;;;;;;;;;1279574;23;932;-34
2022/04/06 02:24:07;;;;;;;;;;;;;;;;;;1280479;23;775;-35
2022/04/06 02:24:38;;;;;;;;;;;;;;;;;;1279629;23;901;-31
2022/04/06 02:25:09;;;;;;;;;;;;;;;;;;1286861;23;928;-31
2022/04/06 02:25:39;;;;;;;;;;;;;;;;;;1286994;23;961;-33
2022/04/06 02:26:09;;;;;;;;;;;;;;;;;;1286589;23;988;-32
2022/04/06 02:26:40;;;;;;;;;;;;;;;;;;1286807;23;1375;-30
2022/04/06 02:27:10;;;;;;;;;;;;;;;;;;1286974;23;985;-33
2022/04/06 02:27:47;;;;;;;;;;;;;;;;;;1286770;23;805;-30
2022/04/06 02:28:18;;;;;;;;;;;;;;;;;;1286510;23;964;-34
2022/04/06 02:28:48;;;;;;;;;;;;;;;;;;1287977;23;972;-31
2022/04/06 02:29:18;;;;;;;;;;;;;;;;;;1288729;23;806;-31
2022/04/06 02:29:49;;;;;;;;;;;;;;;;;;1286172;23;861;-33
2022/04/06 02:30:19;;;;;;;;;;;;;;;;;;1286982;23;1900;-30
2022/04/06 02:30:50;;;;;;;;;;;;;;;;;;1287198;23;802;-32
2022/04/06 02:31:20;;;;;;;;;;;;;;;;;;1286300;23;971;-33
2022/04/06 02:31:50;;;;;;;;;;;;;;;;;;1287092;23;785;-32
2022/04/06 02:32:21;;;;;;;;;;;;;;;;;;1286578;23;862;-29
2022/04/06 02:32:51;;;;;;;;;;;;;;;;;;1286657;23;984;-34
2022/04/06 02:33:22;;;;;;;;;;;;;;;;;;1286746;23;889;-29
2022/04/06 02:33:52;;;;;;;;;;;;;;;;;;1280533;23;1265;-30
2022/04/06 02:34:22;;;;;;;;;;;;;;;;;;1280187;23;830;-33
2022/04/06 02:34:53;;;;;;;;;;;;;;;;;;1279766;23;873;-34
2022/04/06 02:35:23;;;;;;;;;;;;;;;;;;1281290;23;870;-32
2022/04/06 02:35:54;;;;;;;;;;;;;;;;;;1286530;23;813;-35
2022/04/06 02:36:24;;;;;;;;;;;;;;;;;;1286050;23;885;-35
2022/04/06 02:36:55;;;;;;;;;;;;;;;;;;1287239;23;932;-31
2022/04/06 02:37:25;;;;;;;;;;;;;;;;;;1279552;23;1458;-28
2022/04/06 02:37:55;;;;;;;;;;;;;;;;;;1280520;23;904;-34
2022/04/06 02:38:26;;;;;;;;;;;;;;;;;;1279622;23;984;-35
2022/04/06 02:38:56;;;;;;;;;;;;;;;;;;1280414;23;940;-33
2022/04/06 02:39:26;;;;;;;;;;;;;;;;;;1286384;23;869;-32
2022/04/06 02:39:57;;;;;;;;;;;;;;;;;;1286928;23;777;-32
2022/04/06 02:40:27;;;;;;;;;;;;;;;;;;1285673;23;786;-30
2022/04/06 02:40:57;;;;;;;;;;;;;;;;;;1286477;23;979;-32
2022/04/06 02:41:28;;;;;;;;;;;;;;;;;;1286604;23;829;-35
2022/04/06 02:41:58;;;;;;;;;;;;;;;;;;1287935;23;928;-34
2022/04/06 02:42:28;;;;;;;;;;;;;;;;;;1286308;23;865;-34
2022/04/06 02:42:59;;;;;;;;;;;;;;;;;;1287269;23;920;-30
2022/04/06 02:43:29;;;;;;;;;;;;;;;;;;1286787;23;794;-30
2022/04/06 02:43:59;;;;;;;;;;;;;;;;;;1287595;23;782;-34
2022/04/06 02:44:30;;;;;;;;;;;;;;;;;;1287680;23;830;-29
2022/04/06 02:45:00;;;;;;;;;;;;;;;;;;1286946;23;857;-28
2022/04/06 02:45:31;;;;;;;;;;;;;;;;;;1287669;23;1000;-33
2022/04/06 02:46:01;;;;;;;;;;;;;;;;;;1287373;23;860;-32
2022/04/06 02:46:32;;;;;;;;;;;;;;;;;;1287335;23;904;-29
2022/04/06 02:47:03;;;;;;;;;;;;;;;;;;1286694;23;817;-29
2022/04/06 02:47:33;;;;;;;;;;;;;;;;;;1285031;23;753;-31
2022/04/06 02:48:05;;;;;;;;;;;;;;;;;;1287066;23;999;-33
2022/04/06 02:48:35;;;;;;;;;;;;;;;;;;1287328;23;973;-32
2022/04/06 02:49:06;;;;;;;;;;;;;;;;;;1285997;23;1607;-34
2022/04/06 02:49:36;;;;;;;;;;;;;;;;;;1286463;23;813;-35
2022/04/06 02:50:07;;;;;;;;;;;;;;;;;;1286607;23;1938;-30
2022/04/06 02:50:37;;;;;;;;;;;;;;;;;;1285797;23;928;-33
2022/04/06 02:51:07;;;;;;;;;;;;;;;;;;1286861;23;972;-34
2022/04/06 02:51:38;;;;;;;;;;;;;;;;;;1286351;23;829;-33
2022/04/06 02:52:08;;;;;;;;;;;;;;;;;;1287891;23;912;-31
2022/04/06 02:52:39;;;;;;;;;;;;;;;;;;1286785;23;916;-35
2022/04/06 02:53:09;;;;;;;;;;;;;;;;;;1287042;23;778;-33
2022/04/06 02:53:39;;;;;;;;;;;;;;;;;;1286935;23;797;-31
2022/04/06 02:54:10;;;;;;;;;;;;;;;;;;1287232;23;810;-35
2022/04/06 02:54:40;;;;;;;;;;;;;;;;;;1287038;23;788;-32
2022/04/06 02:55:12;;;;;;;;;;;;;;;;;;1286404;23;817;-34
2022/04/06 02:55:43;;;;;;;;;;;;;;;;;;1286610;23;952;-31
2022/04/06 02:56:14;;;;;;;;;;;;;;;;;;1288166;23;943;-33
2022/04/06 02:56:45;;;;;;;;;;;;;;;;;;1286240;23;939;-36
2022/04/06 02:57:16;;;;;;;;;;;;;;;;;;1286906;23;1255;-32
2022/04/06 02:57:46;;;;;;;;;;;;;;;;;;1287635;23;1614;-33
2022/04/06 02:58:16;;;;;;;;;;;;;;;;;;1286994;23;928;-34
2022/04/06 02:58:47;;;;;;;;;;;;;;;;;;1286790;23;901;-31
2022/04/06 02:59:17;;;;;;;;;;;;;;;;;;1286352;23;913;-36
2022/04/06 02:59:47;;;;;;;;;;;;;;;;;;1286999;23;809;-32
2022/04/06 03:00:18;;;;;;;;;;;;;;;;;;1286009;23;857;-32
2022/04/06 03:00:48;;;;;;;;;;;;;;;;;;1286624;23;884;-33
2022/04/06 03:01:19;;;;;;;;;;;;;;;;;;1286600;23;896;-30
2022/04/06 03:01:49;;;;;;;;;;;;;;;;;;1286494;23;849;-35
2022/04/06 03:02:19;;;;;;;;;;;;;;;;;;1286241;23;913;-30
2022/04/06 03:02:50;;;;;;;;;;;;;;;;;;1287211;23;869;-28
2022/04/06 03:03:21;;;;;;;;;;;;;;;;;;1286652;23;885;-33
2022/04/06 03:03:51;;;;;;;;;;;;;;;;;;1286375;23;1007;-31
2022/04/06 03:04:21;;;;;;;;;;;;;;;;;;1287293;23;789;-31
2022/04/06 03:04:52;;;;;;;;;;;;;;;;;;1286926;23;904;-29
2022/04/06 03:05:24;;;;;;;;;;;;;;;;;;1286815;23;794;-30
2022/04/06 03:05:55;;;;;;;;;;;;;;;;;;1286230;23;805;-31
2022/04/06 03:06:25;;;;;;;;;;;;;;;;;;1286626;23;1410;-30
2022/04/06 03:06:55;;;;;;;;;;;;;;;;;;1286517;23;853;-31
2022/04/06 03:07:26;;;;;;;;;;;;;;;;;;1286814;23;934;-28
2022/04/06 03:07:56;;;;;;;;;;;;;;;;;;1287047;23;955;-27
2022/04/06 03:08:26;;;;;;;;;;;;;;;;;;1286107;23;786;-34
2022/04/06 03:08:57;;;;;;;;;;;;;;;;;;1287124;23;1615;-29
2022/04/06 03:09:27;;;;;;;;;;;;;;;;;;1286049;23;1150;-26
2022/04/06 03:09:57;;;;;;;;;;;;;;;;;;1285974;23;813;-27
2022/04/06 03:10:28;;;;;;;;;;;;;;;;;;1286908;23;1924;-29
2022/04/06 03:10:59;;;;;;;;;;;;;;;;;;1286761;23;841;-31
2022/04/06 03:11:29;;;;;;;;;;;;;;;;;;1286276;23;806;-30
2022/04/06 03:11:59;;;;;;;;;;;;;;;;;;1286177;23;889;-30
2022/04/06 03:12:30;;;;;;;;;;;;;;;;;;1286833;23;802;-31
2022/04/06 03:13:00;;;;;;;;;;;;;;;;;;1286022;23;909;-27
2022/04/06 03:13:30;;;;;;;;;;;;;;;;;;1287516;23;805;-28
2022/04/06 03:14:01;;;;;;;;;;;;;;;;;;1286338;23;897;-32
2022/04/06 03:14:31;;;;;;;;;;;;;;;;;;1286933;23;956;-32
2022/04/06 03:15:02;;;;;;;;;;;;;;;;;;1286184;23;861;-30
2022/04/06 03:15:33;;;;;;;;;;;;;;;;;;1286285;23;862;-30
2022/04/06 03:16:03;;;;;;;;;;;;;;;;;;1287370;23;975;-27
2022/04/06 03:16:33;;;;;;;;;;;;;;;;;;1286355;23;762;-31
2022/04/06 03:17:04;;;;;;;;;;;;;;;;;;1286698;23;967;-32
2022/04/06 03:17:35;;;;;;;;;;;;;;;;;;1285086;23;812;-32
2022/04/06 03:18:05;;;;;;;;;;;;;;;;;;1286086;23;873;-31
2022/04/06 03:18:35;;;;;;;;;;;;;;;;;;1285861;23;1020;-31
2022/04/06 03:19:06;;;;;;;;;;;;;;;;;;1287938;23;928;-28
2022/04/06 03:19:36;;;;;;;;;;;;;;;;;;1285779;23;833;-28
2022/04/06 03:20:07;;;;;;;;;;;;;;;;;;1286628;23;782;-32
2022/04/06 03:20:38;;;;;;;;;;;;;;;;;;1286140;23;896;-31
2022/04/06 03:21:08;;;;;;;;;;;;;;;;;;1286285;23;952;-28
2022/04/06 03:21:38;;;;;;;;;;;;;;;;;;1286733;23;810;-30
2022/04/06 03:22:09;;;;;;;;;;;;;;;;;;1286132;23;967;-33
2022/04/06 03:22:40;;;;;;;;;;;;;;;;;;1286935;23;759;-32
2022/04/06 03:23:10;;;;;;;;;;;;;;;;;;1286868;23;1355;-32
2022/04/06 03:23:40;;;;;;;;;;;;;;;;;;1286767;23;917;-32
2022/04/06 03:24:10;;;;;;;;;;;;;;;;;;1286720;23;813;-31
2022/04/06 03:24:41;;;;;;;;;;;;;;;;;;1286436;23;850;-29
2022/04/06 03:25:11;;;;;;;;;;;;;;;;;;1287176;23;904;-32
2022/04/06 03:25:42;;;;;;;;;;;;;;;;;;1287456;23;813;-29
2022/04/06 03:26:12;;;;;;;;;;;;;;;;;;1285380;23;798;-32
2022/04/06 03:26:43;;;;;;;;;;;;;;;;;;1287091;23;944;-34
2022/04/06 03:27:13;;;;;;;;;;;;;;;;;;1287824;23;817;-33
2022/04/06 03:27:44;;;;;;;;;;;;;;;;;;1286285;23;896;-31
2022/04/06 03:28:15;;;;;;;;;;;;;;;;;;1286869;23;773;-32
2022/04/06 03:28:45;;;;;;;;;;;;;;;;;;1286847;23;921;-32
2022/04/06 03:29:15;;;;;;;;;;;;;;;;;;1286430;23;866;-31
2022/04/06 03:29:46;;;;;;;;;;;;;;;;;;1286419;23;865;-33
2022/04/06 03:30:16;;;;;;;;;;;;;;;;;;1287059;23;1900;-33
2022/04/06 03:30:46;;;;;;;;;;;;;;;;;;1287335;23;881;-31
2022/04/06 03:31:16;;;;;;;;;;;;;;;;;;1287086;23;972;-34
2022/04/06 03:31:47;;;;;;;;;;;;;;;;;;1286675;23;948;-32
2022/04/06 03:32:18;;;;;;;;;;;;;;;;;;1286351;23;818;-32
2022/04/06 03:32:48;;;;;;;;;;;;;;;;;;1285444;23;928;-32
2022/04/06 03:33:18;;;;;;;;;;;;;;;;;;1286323;23;794;-32
2022/04/06 03:33:48;;;;;;;;;;;;;;;;;;1287421;23;877;-32
2022/04/06 03:34:19;;;;;;;;;;;;;;;;;;1286374;23;964;-30
2022/04/06 03:34:49;;;;;;;;;;;;;;;;;;1286565;23;924;-29
2022/04/06 03:35:19;;;;;;;;;;;;;;;;;;1279364;23;937;-31
2022/04/06 03:35:50;;;;;;;;;;;;;;;;;;1279231;23;1721;-32
2022/04/06 03:36:20;;;;;;;;;;;;;;;;;;1280485;23;925;-33
2022/04/06 03:36:50;;;;;;;;;;;;;;;;;;1280536;23;814;-32
2022/04/06 03:37:21;;;;;;;;;;;;;;;;;;1287351;23;841;-33
2022/04/06 03:37:51;;;;;;;;;;;;;;;;;;1286121;23;818;-34
2022/04/06 03:38:22;;;;;;;;;;;;;;;;;;1286857;23;857;-33
2022/04/06 03:38:52;;;;;;;;;;;;;;;;;;1280011;23;969;-31
2022/04/06 03:39:22;;;;;;;;;;;;;;;;;;1279153;23;1077;-33
2022/04/06 03:39:52;;;;;;;;;;;;;;;;;;1279240;23;983;-35